createdAt,value
2019-03-10T00:00:37.166Z,76.85
2019-03-10T00:03:08.144Z,76.82
2019-03-10T00:05:38.934Z,76.97
2019-03-10T00:08:09.809Z,76.73
2019-03-10T00:10:40.498Z,76.35
2019-03-10T00:13:11.178Z,76.46
2019-03-10T00:15:42.055Z,76.29
2019-03-10T00:18:12.954Z,76.28
2019-03-10T00:20:44.149Z,76.15
2019-03-10T00:23:14.961Z,76.16
2019-03-10T00:25:45.867Z,76.07
2019-03-10T00:28:16.701Z,76.07
2019-03-10T00:30:47.544Z,76.23
2019-03-10T00:33:18.343Z,76.38
2019-03-10T00:35:49.149Z,76.46
2019-03-10T00:38:20.010Z,76.25
2019-03-10T00:41:37.212Z,75.92
2019-03-10T00:44:47.159Z,76.03
2019-03-10T00:48:01.337Z,76.10
2019-03-10T00:51:06.632Z,75.81
2019-03-10T00:53:37.320Z,75.88
2019-03-10T00:56:08.222Z,75.72
2019-03-10T00:58:39.300Z,75.78
2019-03-10T01:01:10.211Z,75.91
2019-03-10T01:03:41.790Z,75.81
2019-03-10T01:06:12.595Z,75.84
2019-03-10T01:08:43.466Z,76.00
2019-03-10T01:11:14.317Z,75.89
2019-03-10T01:13:45.205Z,75.92
2019-03-10T01:16:17.739Z,75.94
2019-03-10T01:18:49.343Z,75.87
2019-03-10T01:21:21.144Z,76.14
2019-03-10T01:23:52.045Z,76.30
2019-03-10T01:26:22.935Z,76.18
2019-03-10T01:28:53.823Z,76.00
2019-03-10T01:31:32.630Z,75.67
2019-03-10T01:34:50.065Z,76.01
2019-03-10T01:37:20.868Z,75.92
2019-03-10T01:39:51.754Z,76.22
2019-03-10T01:42:22.466Z,76.34
2019-03-10T01:44:53.401Z,76.56
2019-03-10T01:47:24.337Z,76.75
2019-03-10T01:49:55.117Z,76.64
2019-03-10T01:52:25.888Z,76.78
2019-03-10T01:54:56.454Z,76.84
2019-03-10T01:57:27.244Z,76.69
2019-03-10T01:59:59.069Z,76.81
2019-03-10T02:02:29.835Z,76.91
2019-03-10T02:05:00.518Z,76.96
2019-03-10T02:07:31.312Z,76.82
2019-03-10T02:10:02.578Z,76.94
2019-03-10T02:12:34.210Z,76.96
2019-03-10T02:15:05.294Z,77.00
2019-03-10T02:17:36.322Z,76.98
2019-03-10T02:20:09.630Z,76.86
2019-03-10T02:22:40.350Z,77.11
2019-03-10T02:25:11.121Z,77.82
2019-03-10T02:27:41.918Z,77.93
2019-03-10T02:30:15.435Z,78.17
2019-03-10T02:32:46.161Z,78.39
2019-03-10T02:35:17.819Z,78.24
2019-03-10T02:37:48.612Z,78.42
2019-03-10T02:40:19.423Z,78.43
2019-03-10T02:42:50.211Z,78.44
2019-03-10T02:45:20.970Z,78.84
2019-03-10T02:47:52.716Z,78.76
2019-03-10T02:50:23.677Z,78.12
2019-03-10T02:52:54.483Z,78.09
2019-03-10T02:55:25.256Z,78.07
2019-03-10T02:57:55.952Z,77.89
2019-03-10T03:00:26.797Z,77.69
2019-03-10T03:02:57.383Z,77.77
2019-03-10T03:05:28.251Z,77.75
2019-03-10T03:07:59.053Z,77.91
2019-03-10T03:10:29.855Z,77.85
2019-03-10T03:13:00.668Z,77.82
2019-03-10T03:15:31.548Z,78.10
2019-03-10T03:18:02.225Z,77.85
2019-03-10T03:20:33.176Z,77.73
2019-03-10T03:23:03.972Z,77.41
2019-03-10T03:25:34.951Z,77.42
2019-03-10T03:28:05.807Z,77.95
2019-03-10T03:30:36.711Z,77.95
2019-03-10T03:33:07.700Z,78.30
2019-03-10T03:36:05.363Z,78.42
2019-03-10T03:38:38.443Z,78.80
2019-03-10T03:41:12.223Z,79.01
2019-03-10T03:43:42.824Z,79.52
2019-03-10T03:46:13.673Z,79.84
2019-03-10T03:48:44.322Z,79.95
2019-03-10T03:51:15.194Z,80.42
2019-03-10T03:53:45.886Z,80.13
2019-03-10T03:56:16.768Z,80.34
2019-03-10T03:58:47.567Z,80.49
2019-03-10T04:01:21.895Z,80.60
2019-03-10T04:03:52.710Z,80.40
2019-03-10T04:06:23.669Z,80.03
2019-03-10T04:08:54.593Z,80.34
2019-03-10T04:11:25.264Z,80.50
2019-03-10T04:13:56.061Z,80.16
2019-03-10T04:16:26.734Z,80.35
2019-03-10T04:18:57.395Z,80.34
2019-03-10T04:21:28.206Z,80.19
2019-03-10T04:23:58.990Z,80.35
2019-03-10T04:26:30.087Z,80.36
2019-03-10T04:29:00.775Z,80.49
2019-03-10T04:31:31.819Z,80.56
2019-03-10T04:34:02.752Z,80.89
2019-03-10T04:36:33.526Z,81.16
2019-03-10T04:39:05.604Z,81.08
2019-03-10T04:41:36.641Z,81.02
2019-03-10T04:44:07.423Z,81.32
2019-03-10T04:46:38.271Z,81.25
2019-03-10T04:49:09.162Z,81.58
2019-03-10T04:51:39.839Z,81.58
2019-03-10T04:54:10.539Z,81.67
2019-03-10T04:57:03.229Z,81.62
2019-03-10T04:59:33.942Z,81.90
2019-03-10T05:02:04.943Z,81.96
2019-03-10T05:04:35.724Z,82.10
2019-03-10T05:07:07.375Z,82.36
2019-03-10T05:09:38.010Z,82.28
2019-03-10T05:12:09.143Z,82.57
2019-03-10T05:14:40.870Z,82.53
2019-03-10T05:17:11.859Z,82.85
2019-03-10T05:19:42.583Z,82.98
2019-03-10T05:22:13.440Z,82.93
2019-03-10T05:24:44.255Z,82.98
2019-03-10T05:27:15.011Z,83.18
2019-03-10T05:29:45.896Z,83.00
2019-03-10T05:32:17.003Z,83.26
2019-03-10T05:34:48.728Z,83.17
2019-03-10T05:37:20.413Z,83.12
2019-03-10T05:39:51.115Z,83.03
2019-03-10T05:42:21.884Z,83.08
2019-03-10T05:44:52.738Z,83.28
2019-03-10T05:47:23.457Z,83.14
2019-03-10T05:49:54.152Z,82.73
2019-03-10T05:52:25.103Z,82.38
2019-03-10T05:54:55.992Z,81.99
2019-03-10T05:57:26.878Z,81.80
2019-03-10T05:59:57.611Z,81.77
2019-03-10T06:02:28.339Z,81.86
2019-03-10T06:04:59.036Z,81.91
2019-03-10T06:07:29.711Z,81.56
2019-03-10T06:10:00.399Z,81.21
2019-03-10T06:12:32.302Z,80.68
2019-03-10T06:15:02.992Z,80.32
2019-03-10T06:17:33.934Z,79.96
2019-03-10T06:20:04.598Z,79.86
2019-03-10T06:22:35.392Z,79.72
2019-03-10T06:25:06.275Z,79.70
2019-03-10T06:27:36.949Z,79.78
2019-03-10T06:30:08.151Z,79.53
2019-03-10T06:32:38.941Z,79.31
2019-03-10T06:35:09.887Z,78.99
2019-03-10T06:37:40.675Z,78.96
2019-03-10T06:40:11.665Z,78.50
2019-03-10T06:42:42.568Z,78.68
2019-03-10T06:45:13.330Z,78.62
2019-03-10T06:47:44.421Z,78.69
2019-03-10T06:50:15.417Z,78.35
2019-03-10T06:52:46.198Z,78.42
2019-03-10T06:55:17.022Z,78.07
2019-03-10T06:57:47.854Z,78.04
2019-03-10T07:00:18.493Z,77.83
2019-03-10T07:02:49.615Z,77.81
2019-03-10T07:05:20.373Z,77.93
2019-03-10T07:07:51.141Z,77.71
2019-03-10T07:10:22.009Z,77.32
2019-03-10T07:12:52.684Z,77.61
2019-03-10T07:15:23.594Z,78.40
2019-03-10T07:17:54.487Z,79.28
2019-03-10T07:20:25.193Z,79.96
2019-03-10T07:22:56.213Z,80.45
2019-03-10T07:25:26.855Z,80.40
2019-03-10T07:28:24.121Z,80.39
2019-03-10T07:30:59.227Z,80.06
2019-03-10T07:33:35.636Z,79.62
2019-03-10T07:36:31.441Z,79.39
2019-03-10T07:39:33.179Z,79.38
2019-03-10T07:42:21.332Z,80.08
2019-03-10T07:45:17.183Z,80.70
2019-03-10T07:48:12.990Z,81.19
2019-03-10T07:51:02.815Z,81.30
2019-03-10T07:53:55.614Z,81.31
2019-03-10T07:56:44.072Z,81.75
2019-03-10T07:59:33.860Z,81.92
2019-03-10T08:02:23.458Z,82.05
2019-03-10T08:05:25.298Z,81.77
2019-03-10T08:08:23.952Z,81.79
2019-03-10T08:11:16.353Z,81.45
2019-03-10T08:14:12.282Z,80.89
2019-03-10T08:16:55.985Z,81.16
2019-03-10T08:19:45.713Z,81.39
2019-03-10T08:22:38.920Z,81.54
2019-03-10T08:25:37.851Z,81.56
2019-03-10T08:28:30.466Z,81.98
2019-03-10T08:31:23.920Z,81.87
2019-03-10T08:34:06.133Z,81.42
2019-03-10T08:36:45.910Z,81.93
2019-03-10T08:39:44.660Z,81.75
2019-03-10T08:42:30.286Z,81.47
2019-03-10T08:45:28.896Z,81.57
2019-03-10T08:48:21.558Z,81.46
2019-03-10T08:51:00.037Z,80.27
2019-03-10T08:53:55.571Z,80.07
2019-03-10T08:56:34.078Z,79.39
2019-03-10T08:59:23.826Z,79.18
2019-03-10T09:02:12.471Z,79.17
2019-03-10T09:04:50.474Z,78.90
2019-03-10T09:07:39.367Z,78.79
2019-03-10T09:10:30.038Z,78.76
2019-03-10T09:13:22.577Z,78.84
2019-03-10T09:16:06.731Z,78.72
2019-03-10T09:18:59.586Z,78.68
2019-03-10T09:21:50.095Z,78.31
2019-03-10T09:24:39.282Z,78.07
2019-03-10T09:27:28.646Z,78.48
2019-03-10T09:30:34.931Z,78.54
2019-03-10T09:33:30.692Z,79.37
2019-03-10T09:36:23.118Z,79.26
2019-03-10T09:39:12.636Z,79.45
2019-03-10T09:42:05.575Z,79.08
2019-03-10T09:45:01.602Z,79.50
2019-03-10T09:47:43.614Z,79.29
2019-03-10T09:50:31.875Z,78.86
2019-03-10T09:53:22.384Z,78.13
2019-03-10T09:56:15.115Z,78.08
2019-03-10T09:59:13.985Z,77.44
2019-03-10T10:02:12.979Z,76.55
2019-03-10T10:04:59.587Z,76.08
2019-03-10T10:07:52.383Z,75.19
2019-03-10T10:10:44.164Z,75.06
2019-03-10T10:13:27.020Z,76.51
2019-03-10T10:16:34.855Z,77.34
2019-03-10T10:19:25.384Z,78.03
2019-03-10T10:22:18.242Z,79.39
2019-03-10T10:25:09.657Z,79.62
2019-03-10T10:27:59.467Z,79.17
2019-03-10T10:30:47.722Z,78.67
2019-03-10T10:33:24.159Z,77.99
2019-03-10T10:36:13.841Z,77.40
2019-03-10T10:39:03.552Z,76.55
2019-03-10T10:41:50.053Z,75.99
2019-03-10T10:44:28.525Z,75.56
2019-03-10T10:47:14.464Z,76.26
2019-03-10T10:50:16.083Z,75.62
2019-03-10T10:53:03.839Z,73.93
2019-03-10T10:55:40.311Z,74.35
2019-03-10T10:58:36.618Z,75.11
2019-03-10T11:01:26.541Z,74.53
2019-03-10T11:04:16.431Z,74.93
2019-03-10T11:07:06.156Z,75.08
2019-03-10T11:09:55.966Z,74.71
2019-03-10T11:12:51.758Z,74.58
2019-03-10T11:15:32.146Z,74.88
2019-03-10T11:18:16.472Z,74.86
2019-03-10T11:21:09.333Z,74.71
2019-03-10T11:23:54.091Z,74.06
2019-03-10T11:26:46.866Z,74.42
2019-03-10T11:29:50.983Z,74.63
2019-03-10T11:32:31.647Z,72.97
2019-03-10T11:35:08.599Z,72.89
2019-03-10T11:38:10.400Z,72.82
2019-03-10T11:40:52.357Z,72.41
2019-03-10T11:43:27.939Z,72.25
2019-03-10T11:46:25.163Z,71.13
2019-03-10T11:49:12.567Z,70.67
2019-03-10T11:51:53.975Z,70.73
2019-03-10T11:54:32.108Z,70.76
2019-03-10T11:57:11.514Z,71.01
2019-03-10T11:59:56.048Z,70.71
2019-03-10T12:02:48.002Z,69.87
2019-03-10T12:05:24.469Z,70.32
2019-03-10T12:08:23.406Z,69.90
2019-03-10T12:10:54.091Z,69.41
2019-03-10T12:13:24.906Z,69.43
2019-03-10T12:15:55.770Z,68.83
2019-03-10T12:18:26.747Z,67.38
2019-03-10T12:20:57.443Z,67.11
2019-03-10T12:23:28.277Z,66.93
2019-03-10T12:25:59.075Z,67.02
2019-03-10T12:28:29.777Z,66.92
2019-03-10T12:31:00.574Z,67.00
2019-03-10T12:33:31.443Z,66.93
2019-03-10T12:36:02.219Z,66.95
2019-03-10T12:38:33.074Z,66.74
2019-03-10T12:41:03.897Z,67.36
2019-03-10T12:43:34.516Z,66.53
2019-03-10T12:46:05.387Z,66.82
2019-03-10T12:48:36.086Z,66.84
2019-03-10T12:51:19.338Z,65.65
2019-03-10T12:53:49.746Z,66.03
2019-03-10T12:56:20.616Z,66.61
2019-03-10T12:58:51.415Z,67.37
2019-03-10T13:01:22.236Z,67.06
2019-03-10T13:03:58.791Z,66.81
2019-03-10T13:06:25.731Z,66.31
2019-03-10T13:08:56.532Z,66.13
2019-03-10T13:11:27.502Z,65.29
2019-03-10T13:13:58.326Z,65.72
2019-03-10T13:16:29.163Z,65.56
2019-03-10T13:18:59.979Z,64.35
2019-03-10T13:21:30.796Z,62.34
2019-03-10T13:24:01.756Z,63.35
2019-03-10T13:26:32.426Z,62.00
2019-03-10T13:29:03.223Z,60.29
2019-03-10T13:31:34.175Z,58.25
2019-03-10T13:34:04.866Z,56.58
2019-03-10T13:36:35.630Z,57.36
2019-03-10T13:39:08.097Z,56.42
2019-03-10T13:41:40.390Z,55.55
2019-03-10T13:44:11.625Z,53.50
2019-03-10T13:46:43.913Z,49.02
2019-03-10T13:49:14.796Z,46.60
2019-03-10T13:51:45.470Z,47.36
2019-03-10T13:54:16.267Z,46.73
2019-03-10T13:56:47.141Z,43.33
2019-03-10T13:59:17.934Z,43.53
2019-03-10T14:01:49.018Z,44.09
2019-03-10T14:04:19.847Z,45.74
2019-03-10T14:06:52.207Z,45.33
2019-03-10T14:09:23.055Z,45.78
2019-03-10T14:11:53.919Z,47.12
2019-03-10T14:14:24.622Z,47.49
2019-03-10T14:16:55.377Z,47.27
2019-03-10T14:19:26.295Z,48.30
2019-03-10T14:21:57.143Z,50.08
2019-03-10T14:24:27.737Z,49.78
2019-03-10T14:26:58.488Z,50.90
2019-03-10T14:29:29.197Z,50.69
2019-03-10T14:32:00.012Z,55.19
2019-03-10T14:34:32.005Z,54.34
2019-03-10T14:37:02.746Z,54.73
2019-03-10T14:39:33.663Z,54.37
2019-03-10T14:42:04.549Z,52.84
2019-03-10T14:44:36.268Z,52.26
2019-03-10T14:47:07.041Z,52.75
2019-03-10T14:49:37.866Z,51.26
2019-03-10T14:52:08.683Z,48.60
2019-03-10T14:54:39.335Z,48.36
2019-03-10T14:57:10.111Z,46.46
2019-03-10T14:59:40.907Z,44.65
2019-03-10T15:02:11.762Z,45.92
2019-03-10T15:04:42.585Z,45.71
2019-03-10T15:07:13.351Z,41.17
2019-03-10T15:09:44.148Z,40.66
2019-03-10T15:12:14.999Z,39.67
2019-03-10T15:14:45.783Z,37.55
2019-03-10T15:17:16.575Z,37.68
2019-03-10T15:19:47.454Z,38.62
2019-03-10T15:22:18.339Z,38.91
2019-03-10T15:24:49.068Z,38.08
2019-03-10T15:27:23.529Z,40.83
2019-03-10T15:29:52.273Z,42.72
2019-03-10T15:32:23.303Z,45.38
2019-03-10T15:34:54.049Z,44.46
2019-03-10T15:37:25.071Z,46.02
2019-03-10T15:39:55.686Z,48.19
2019-03-10T15:42:26.471Z,47.96
2019-03-10T15:44:57.257Z,49.04
2019-03-10T15:47:28.134Z,50.01
2019-03-10T15:49:59.062Z,51.22
2019-03-10T15:52:30.057Z,51.25
2019-03-10T15:55:00.841Z,50.96
2019-03-10T15:57:31.506Z,50.63
2019-03-10T16:00:02.309Z,51.06
2019-03-10T16:02:34.832Z,50.67
2019-03-10T16:05:06.132Z,49.85
2019-03-10T16:07:37.069Z,49.52
2019-03-10T16:10:08.285Z,47.77
2019-03-10T16:12:39.238Z,47.17
2019-03-10T16:15:12.216Z,47.62
2019-03-10T16:17:43.024Z,40.51
2019-03-10T16:20:14.084Z,40.14
2019-03-10T16:22:44.964Z,40.85
2019-03-10T16:25:15.751Z,38.23
2019-03-10T16:27:46.738Z,35.43
2019-03-10T16:30:18.167Z,38.85
2019-03-10T16:32:50.152Z,38.43
2019-03-10T16:35:22.298Z,37.68
2019-03-10T16:37:53.494Z,36.36
2019-03-10T16:40:24.369Z,36.01
2019-03-10T16:42:55.321Z,36.96
2019-03-10T16:45:26.140Z,36.56
2019-03-10T16:47:57.740Z,37.05
2019-03-10T16:50:30.677Z,37.50
2019-03-10T16:53:02.564Z,37.18
2019-03-10T16:55:33.363Z,37.00
2019-03-10T16:58:04.257Z,38.58
2019-03-10T17:00:35.047Z,38.49
2019-03-10T17:03:05.960Z,40.07
2019-03-10T17:05:36.826Z,40.96
2019-03-10T17:08:07.639Z,41.32
2019-03-10T17:10:38.431Z,41.60
2019-03-10T17:13:09.479Z,41.71
2019-03-10T17:15:40.165Z,40.59
2019-03-10T17:18:11.309Z,40.86
2019-03-10T17:20:42.135Z,41.05
2019-03-10T17:23:13.058Z,42.85
2019-03-10T17:25:43.946Z,42.04
2019-03-10T17:28:14.721Z,41.87
2019-03-10T17:30:45.523Z,42.90
2019-03-10T17:33:16.495Z,41.84
2019-03-10T17:35:47.190Z,42.31
2019-03-10T17:38:17.858Z,43.31
2019-03-10T17:40:48.735Z,43.36
2019-03-10T17:43:19.693Z,42.95
2019-03-10T17:45:50.406Z,44.49
2019-03-10T17:48:21.229Z,42.84
2019-03-10T17:50:52.071Z,44.38
2019-03-10T17:53:22.947Z,43.03
2019-03-10T17:55:53.787Z,42.09
2019-03-10T17:58:24.815Z,41.85
2019-03-10T18:00:55.464Z,43.04
2019-03-10T18:03:26.328Z,42.94
2019-03-10T18:05:57.231Z,43.05
2019-03-10T18:08:28.187Z,43.07
2019-03-10T18:10:58.895Z,41.42
2019-03-10T18:13:29.562Z,42.00
2019-03-10T18:16:00.354Z,42.44
2019-03-10T18:18:31.067Z,44.23
2019-03-10T18:21:01.835Z,42.75
2019-03-10T18:23:32.876Z,44.72
2019-03-10T18:26:03.584Z,43.94
2019-03-10T18:28:34.250Z,45.36
2019-03-10T18:31:05.145Z,44.32
2019-03-10T18:33:35.840Z,45.28
2019-03-10T18:36:06.728Z,44.44
2019-03-10T18:38:37.603Z,44.70
2019-03-10T18:41:08.530Z,44.28
2019-03-10T18:43:39.271Z,44.76
2019-03-10T18:46:10.201Z,44.93
2019-03-10T18:48:41.240Z,44.61
2019-03-10T18:51:11.836Z,45.38
2019-03-10T18:53:42.728Z,44.52
2019-03-10T18:56:13.544Z,49.17
2019-03-10T18:58:44.319Z,55.88
2019-03-10T19:01:16.146Z,57.73
2019-03-10T19:03:47.222Z,60.11
2019-03-10T19:06:18.020Z,55.71
2019-03-10T19:08:48.865Z,55.51
2019-03-10T19:11:19.591Z,55.04
2019-03-10T19:13:50.327Z,60.73
2019-03-10T19:16:21.053Z,62.83
2019-03-10T19:18:51.722Z,65.71
2019-03-10T19:21:22.616Z,67.56
2019-03-10T19:23:53.438Z,67.96
2019-03-10T19:26:24.215Z,67.69
2019-03-10T19:28:54.971Z,66.50
2019-03-10T19:31:25.826Z,62.69
2019-03-10T19:33:56.345Z,60.96
2019-03-10T19:36:27.028Z,62.71
2019-03-10T19:38:57.703Z,61.23
2019-03-10T19:41:28.455Z,62.75
2019-03-10T19:43:59.655Z,62.11
2019-03-10T19:46:30.372Z,61.33
2019-03-10T19:49:01.714Z,61.37
2019-03-10T19:51:32.410Z,60.54
2019-03-10T19:54:03.206Z,62.12
2019-03-10T19:56:33.994Z,61.89
2019-03-10T19:59:05.167Z,63.05
2019-03-10T20:01:36.002Z,61.90
2019-03-10T20:04:06.782Z,62.79
2019-03-10T20:06:37.570Z,62.72
2019-03-10T20:09:10.036Z,63.55
2019-03-10T20:11:41.926Z,62.53
2019-03-10T20:14:12.811Z,62.78
2019-03-10T20:16:43.740Z,62.33
2019-03-10T20:19:14.702Z,63.36
2019-03-10T20:21:45.522Z,62.33
2019-03-10T20:24:16.538Z,63.09
2019-03-10T20:26:47.349Z,62.45
2019-03-10T20:29:18.480Z,61.98
2019-03-10T20:31:49.247Z,61.94
2019-03-10T20:34:20.163Z,61.63
2019-03-10T20:36:52.286Z,62.78
2019-03-10T20:39:23.266Z,62.74
2019-03-10T20:42:04.480Z,57.72
2019-03-10T20:44:26.573Z,56.82
2019-03-10T20:46:57.555Z,54.43
2019-03-10T20:49:28.543Z,58.45
2019-03-10T20:51:59.156Z,57.75
2019-03-10T20:54:30.274Z,57.25
2019-03-10T20:57:01.058Z,50.80
2019-03-10T20:59:31.830Z,54.24
2019-03-10T21:02:02.632Z,53.44
2019-03-10T21:04:33.493Z,47.05
2019-03-10T21:07:04.258Z,51.58
2019-03-10T21:09:34.974Z,52.92
2019-03-10T21:12:05.838Z,52.36
2019-03-10T21:14:36.615Z,49.15
2019-03-10T21:17:07.337Z,49.07
2019-03-10T21:19:38.275Z,51.79
2019-03-10T21:22:08.901Z,50.81
2019-03-10T21:24:39.735Z,49.23
2019-03-10T21:27:10.578Z,48.25
2019-03-10T21:29:41.364Z,48.68
2019-03-10T21:32:12.007Z,48.64
2019-03-10T21:34:42.978Z,49.78
2019-03-10T21:37:13.689Z,49.14
2019-03-10T21:39:44.772Z,49.50
2019-03-10T21:42:15.390Z,51.39
2019-03-10T21:44:46.241Z,49.08
2019-03-10T21:47:17.126Z,48.67
2019-03-10T21:49:47.902Z,49.73
2019-03-10T21:52:19.186Z,49.25
2019-03-10T21:54:50.724Z,46.73
2019-03-10T21:57:21.605Z,48.34
2019-03-10T21:59:52.410Z,45.31
2019-03-10T22:02:23.166Z,46.31
2019-03-10T22:04:53.966Z,44.52
2019-03-10T22:07:24.780Z,42.94
2019-03-10T22:09:55.664Z,43.01
2019-03-10T22:12:26.494Z,44.00
2019-03-10T22:14:57.250Z,44.70
2019-03-10T22:17:28.139Z,45.16
2019-03-10T22:19:58.958Z,47.42
2019-03-10T22:22:30.614Z,46.05
2019-03-10T22:25:12.135Z,47.12
2019-03-10T22:27:34.141Z,46.32
2019-03-10T22:30:05.389Z,48.42
2019-03-10T22:32:36.233Z,50.59
2019-03-10T22:35:07.465Z,50.58
2019-03-10T22:37:38.534Z,49.17
2019-03-10T22:40:10.027Z,51.04
2019-03-10T22:42:40.929Z,45.11
2019-03-10T22:45:12.131Z,45.15
2019-03-10T22:47:43.856Z,48.78
2019-03-10T22:50:15.036Z,46.35
2019-03-10T22:52:45.918Z,46.39
2019-03-10T22:55:17.079Z,48.47
2019-03-10T22:57:47.765Z,47.23
2019-03-10T23:00:20.879Z,47.43
2019-03-10T23:02:53.521Z,47.70
2019-03-10T23:05:24.112Z,49.75
2019-03-10T23:07:54.901Z,47.67
2019-03-10T23:10:25.583Z,49.28
2019-03-10T23:12:56.350Z,47.63
2019-03-10T23:15:27.102Z,46.79
2019-03-10T23:17:57.931Z,46.70
2019-03-10T23:20:28.797Z,47.36
2019-03-10T23:22:59.564Z,44.97
2019-03-10T23:25:30.494Z,44.38
2019-03-10T23:28:01.345Z,45.96
2019-03-10T23:30:34.470Z,46.05
2019-03-10T23:33:04.553Z,46.33
2019-03-10T23:35:35.230Z,46.91
2019-03-10T23:38:06.809Z,47.26
2019-03-10T23:40:37.734Z,48.61
2019-03-10T23:43:08.497Z,49.54
2019-03-10T23:45:39.362Z,46.29
2019-03-10T23:48:10.077Z,47.03
2019-03-10T23:50:40.855Z,50.71
2019-03-10T23:53:11.562Z,53.14
2019-03-10T23:55:42.213Z,54.70
2019-03-10T23:58:13.246Z,54.44
